Time;durP1;ratioP1;P1;durP2;ratioP2;P2;SDS_P1;SDS_P2;PMS_P1;PMS_P2;Temp;Humidity;BMP_temperature;BMP_pressure;BME280_temperature;BME280_humidity;BME280_pressure;Samples;Min_cycle;Max_cycle;Signal;HPM_P1;HPM_P2
2021/05/29 10:44:41;;;;;;;0.38;0.38;;;20.70;71.70;;;;;;5152441;27;20188;-76
2021/05/29 10:47:12;;;;;;;0.75;0.60;;;20.60;73.10;;;;;;5111633;28;20031;-76
2021/05/29 10:49:54;;;;;;;0.60;0.60;;;20.70;74.10;;;;;;5130608;28;20067;-77
2021/05/29 10:52:54;;;;;;;0.80;0.60;;;20.80;75.30;;;;;;5112140;28;20067;-76
2021/05/29 10:55:21;;;;;;;0.60;0.60;;;20.90;75.80;;;;;;5099223;28;20066;-76
2021/05/29 10:57:54;;;;;;;1.88;0.88;;;20.90;76.00;;;;;;5132618;28;20039;-77
2021/05/29 11:00:50;;;;;;;1.00;0.80;;;20.80;76.20;;;;;;5125177;28;20096;-76
2021/05/29 11:03:29;;;;;;;0.63;0.63;;;20.70;76.80;;;;;;5121041;28;20042;-75
2021/05/29 11:05:57;;;;;;;0.80;0.80;;;20.80;76.90;;;;;;5116378;28;20063;-75
2021/05/29 11:08:45;;;;;;;0.85;0.80;;;20.90;76.30;;;;;;5130091;28;20043;-76
2021/05/29 11:11:43;;;;;;;0.80;0.80;;;20.90;75.80;;;;;;5117254;28;20050;-77
2021/05/29 11:14:11;;;;;;;0.80;0.80;;;20.90;76.30;;;;;;5128507;28;20044;-76
2021/05/29 11:17:03;;;;;;;0.63;0.60;;;21.00;75.90;;;;;;5132595;28;20027;-76
2021/05/29 11:19:33;;;;;;;0.93;0.88;;;21.00;75.70;;;;;;5145169;28;20047;-77
2021/05/29 11:22:13;;;;;;;0.77;0.77;;;21.10;75.60;;;;;;5118253;27;20083;-76
2021/05/29 11:24:56;;;;;;;0.82;0.70;;;21.00;75.40;;;;;;5152985;27;20055;-76
2021/05/29 11:27:24;;;;;;;0.52;0.52;;;21.00;75.50;;;;;;5121086;27;20024;-76
2021/05/29 11:29:58;;;;;;;1.13;0.90;;;21.20;75.00;;;;;;5119209;28;20055;-76
2021/05/29 11:32:52;;;;;;;0.85;0.85;;;21.10;74.60;;;;;;5153318;27;20048;-77
2021/05/29 11:35:32;;;;;;;0.80;0.80;;;21.20;74.00;;;;;;5152648;27;20028;-76
2021/05/29 11:38:04;;;;;;;0.77;0.77;;;21.10;74.10;;;;;;5136919;27;20062;-77
2021/05/29 11:40:51;;;;;;;0.80;0.80;;;21.00;74.40;;;;;;5154509;27;20034;-76
2021/05/29 11:43:33;;;;;;;0.82;0.70;;;21.00;74.30;;;;;;5119777;27;20098;-77
2021/05/29 11:46:00;;;;;;;1.05;0.80;;;21.10;74.20;;;;;;5139135;27;20042;-76
2021/05/29 11:48:28;;;;;;;0.88;0.80;;;21.10;73.80;;;;;;5154231;27;20053;-76
2021/05/29 11:51:10;;;;;;;0.73;0.73;;;21.10;73.50;;;;;;5136867;27;20036;-76
2021/05/29 11:53:37;;;;;;;0.73;0.60;;;21.10;73.70;;;;;;5134499;27;20031;-77
2021/05/29 11:56:05;;;;;;;0.70;0.70;;;20.90;73.70;;;;;;5140402;28;20039;-76
2021/05/29 11:58:52;;;;;;;0.60;0.60;;;20.70;74.10;;;;;;5123252;28;20039;-77
2021/05/29 12:01:21;;;;;;;1.00;0.82;;;20.70;74.20;;;;;;5122366;28;20039;-77
2021/05/29 12:03:50;;;;;;;0.73;0.73;;;20.80;74.10;;;;;;5140487;28;20044;-76
2021/05/29 12:06:37;;;;;;;0.60;0.60;;;21.00;73.50;;;;;;5123567;28;20031;-77
2021/05/29 12:09:15;;;;;;;0.57;0.57;;;21.10;72.70;;;;;;5119370;28;20158;-77
2021/05/29 12:11:47;;;;;;;0.80;0.80;;;21.20;72.30;;;;;;5139153;28;20066;-76
2021/05/29 12:14:16;;;;;;;0.73;0.65;;;21.10;72.10;;;;;;5138878;28;20075;-76
2021/05/29 12:16:45;;;;;;;0.90;0.90;;;21.00;72.40;;;;;;5122112;28;20031;-76
2021/05/29 12:19:45;;;;;;;0.70;0.70;;;20.80;72.70;;;;;;5103968;28;20039;-77
2021/05/29 12:22:16;;;;;;;0.80;0.80;;;20.80;72.80;;;;;;5139522;28;20067;-77
2021/05/29 12:24:46;;;;;;;0.73;0.70;;;20.90;72.60;;;;;;5139720;28;20043;-77
2021/05/29 12:27:16;;;;;;;0.60;0.60;;;21.00;72.10;;;;;;5105180;28;20051;-78
2021/05/29 12:29:42;;;;;;;0.70;0.70;;;21.00;71.80;;;;;;5138782;28;20047;-77
2021/05/29 12:32:10;;;;;;;1.13;0.52;;;21.10;71.50;;;;;;5112717;28;20066;-79
2021/05/29 12:34:47;;;;;;;0.82;0.82;;;21.30;71.00;;;;;;5130777;28;20040;-76
2021/05/29 12:37:15;;;;;;;0.55;0.55;;;21.20;70.70;;;;;;5119465;28;20532;-77
2021/05/29 12:40:01;;;;;;;1.95;0.65;;;21.10;70.90;;;;;;5090693;28;20044;-77
2021/05/29 12:42:34;;;;;;;0.50;0.50;;;21.10;70.90;;;;;;5081144;28;20047;-77
2021/05/29 12:45:14;;;;;;;0.60;0.55;;;21.00;71.00;;;;;;5086880;28;20040;-77
2021/05/29 12:47:52;;;;;;;0.90;0.70;;;21.00;70.90;;;;;;5079679;28;20089;-75
2021/05/29 12:50:25;;;;;;;0.70;0.70;;;21.20;70.60;;;;;;5100362;28;20092;-76
2021/05/29 12:52:50;;;;;;;1.27;0.60;;;21.20;70.40;;;;;;5119514;28;20039;-76
2021/05/29 12:55:19;;;;;;;0.80;0.73;;;21.20;70.30;;;;;;5101167;28;20111;-77
2021/05/29 12:57:45;;;;;;;0.60;0.60;;;21.10;70.30;;;;;;5077409;28;20058;-76
2021/05/29 13:00:32;;;;;;;0.70;0.60;;;21.00;70.50;;;;;;5128719;28;20044;-78
2021/05/29 13:09:22;;;;;;;0.93;0.80;;;20.90;70.40;;;;;;5102799;28;20048;-76
2021/05/29 13:11:48;;;;;;;0.63;0.63;;;21.00;70.10;;;;;;5097605;28;20049;-76
2021/05/29 13:14:18;;;;;;;0.50;0.50;;;21.00;70.00;;;;;;5114354;28;20126;-77
2021/05/29 13:16:53;;;;;;;0.60;0.60;;;21.10;69.60;;;;;;5102217;28;20040;-77
2021/05/29 13:19:22;;;;;;;0.60;0.60;;;21.10;69.30;;;;;;5115480;28;20127;-77
2021/05/29 13:21:53;;;;;;;0.70;0.70;;;21.20;69.00;;;;;;5095905;28;20046;-77
2021/05/29 13:24:50;;;;;;;0.63;0.60;;;21.10;68.90;;;;;;5079404;28;20074;-79
2021/05/29 13:27:22;;;;;;;0.68;0.60;;;21.00;69.00;;;;;;5078786;28;20039;-78
2021/05/29 13:29:48;;;;;;;0.60;0.60;;;20.90;69.10;;;;;;5098892;28;20043;-77
2021/05/29 13:32:17;;;;;;;0.60;0.60;;;21.00;68.80;;;;;;5081434;28;20097;-77
2021/05/29 13:34:43;;;;;;;0.77;0.65;;;21.00;68.70;;;;;;5100336;28;20390;-76
2021/05/29 13:37:09;;;;;;;0.57;0.57;;;21.00;68.70;;;;;;5117198;28;20101;-77
2021/05/29 13:39:35;;;;;;;0.50;0.50;;;21.10;68.50;;;;;;5115336;28;20462;-77
2021/05/29 13:42:03;;;;;;;0.80;0.70;;;21.10;68.10;;;;;;5079503;28;20405;-76
2021/05/29 13:44:29;;;;;;;0.50;0.50;;;21.20;68.10;;;;;;5115266;28;20042;-77
2021/05/29 13:46:55;;;;;;;0.60;0.60;;;21.20;68.10;;;;;;5113648;28;20062;-76
2021/05/29 13:49:21;;;;;;;1.33;0.70;;;21.20;67.90;;;;;;5096785;28;20489;-75
2021/05/29 13:51:47;;;;;;;0.70;0.70;;;21.20;67.60;;;;;;5114761;28;20039;-76
2021/05/29 13:54:14;;;;;;;0.63;0.60;;;21.20;67.50;;;;;;5114949;28;20492;-78
2021/05/29 13:56:41;;;;;;;0.70;0.70;;;21.20;67.70;;;;;;5096477;28;20031;-75
2021/05/29 13:59:07;;;;;;;0.60;0.60;;;21.20;67.50;;;;;;5096311;28;20478;-76
2021/05/29 14:01:33;;;;;;;0.82;0.63;;;21.10;67.60;;;;;;5114085;28;20046;-77
2021/05/29 14:03:59;;;;;;;0.80;0.80;;;21.10;67.70;;;;;;5095377;28;20088;-75
2021/05/29 14:06:25;;;;;;;0.50;0.50;;;21.10;67.70;;;;;;5113645;28;20035;-76
2021/05/29 14:08:51;;;;;;;0.65;0.65;;;21.10;67.50;;;;;;5114941;28;20068;-76
2021/05/29 14:11:26;;;;;;;0.77;0.73;;;21.10;67.20;;;;;;5116040;28;20028;-77
2021/05/29 14:13:52;;;;;;;0.70;0.65;;;21.20;67.10;;;;;;5114318;28;20040;-75
2021/05/29 14:16:19;;;;;;;1.23;0.50;;;21.10;67.00;;;;;;5118031;28;20493;-79
2021/05/29 14:18:46;;;;;;;0.47;0.47;;;21.00;67.20;;;;;;5101902;28;20062;-74
2021/05/29 14:21:13;;;;;;;0.50;0.50;;;21.10;67.30;;;;;;5115479;28;20047;-73
2021/05/29 14:23:39;;;;;;;0.73;0.57;;;21.10;67.10;;;;;;5116368;28;20039;-74
2021/05/29 14:26:06;;;;;;;0.57;0.57;;;21.20;66.90;;;;;;5113436;28;20039;-74
2021/05/29 14:28:32;;;;;;;0.70;0.70;;;21.20;66.60;;;;;;5115378;28;20058;-74
2021/05/29 14:30:59;;;;;;;0.57;0.57;;;21.20;66.40;;;;;;5080341;28;20043;-74
2021/05/29 14:33:24;;;;;;;0.80;0.80;;;21.20;66.20;;;;;;5101772;28;20043;-77
2021/05/29 14:35:50;;;;;;;0.82;0.65;;;21.10;66.20;;;;;;5098798;28;20054;-75
2021/05/29 14:38:16;;;;;;;0.57;0.57;;;21.20;66.30;;;;;;5096248;28;20054;-75
2021/05/29 14:40:42;;;;;;;0.70;0.70;;;21.00;66.50;;;;;;5120083;28;20038;-75
2021/05/29 14:43:08;;;;;;;0.60;0.60;;;20.90;66.50;;;;;;5082331;28;20040;-74
2021/05/29 14:45:34;;;;;;;0.60;0.60;;;20.90;66.30;;;;;;5091426;28;20048;-77
2021/05/29 14:48:00;;;;;;;0.45;0.45;;;20.90;66.30;;;;;;5127518;28;20105;-77
2021/05/29 14:50:26;;;;;;;0.40;0.40;;;20.90;66.20;;;;;;5079486;28;20035;-77
2021/05/29 14:52:51;;;;;;;0.50;0.50;;;20.90;66.00;;;;;;5091128;28;20101;-77
2021/05/29 14:55:20;;;;;;;0.50;0.50;;;20.90;66.00;;;;;;5094513;28;20053;-79
2021/05/29 14:57:46;;;;;;;0.60;0.60;;;20.90;65.80;;;;;;5074631;28;20073;-78
2021/05/29 15:00:13;;;;;;;0.55;0.50;;;20.90;65.70;;;;;;5069897;28;20040;-77
2021/05/29 15:02:42;;;;;;;0.57;0.57;;;20.90;65.60;;;;;;5088632;28;20097;-78
2021/05/29 15:05:08;;;;;;;0.50;0.50;;;20.90;65.30;;;;;;5084304;28;20058;-77
2021/05/29 15:07:34;;;;;;;0.50;0.50;;;20.90;65.10;;;;;;5094283;28;20450;-77
2021/05/29 15:10:00;;;;;;;0.50;0.50;;;20.90;64.90;;;;;;5098804;28;20138;-76
2021/05/29 15:12:26;;;;;;;0.50;0.50;;;21.00;64.60;;;;;;5098425;28;20044;-76
2021/05/29 15:14:53;;;;;;;0.50;0.50;;;21.00;64.40;;;;;;5097328;28;20032;-76
2021/05/29 15:17:19;;;;;;;0.88;0.60;;;21.00;64.20;;;;;;5124807;28;20051;-76
2021/05/29 15:19:45;;;;;;;0.90;0.57;;;21.00;64.20;;;;;;5117756;28;20101;-78
2021/05/29 15:22:15;;;;;;;0.50;0.50;;;21.10;64.10;;;;;;5082459;28;20052;-78
2021/05/29 15:24:41;;;;;;;0.65;0.60;;;21.10;63.90;;;;;;5089048;28;20056;-81
2021/05/29 15:27:09;;;;;;;0.50;0.50;;;21.10;63.80;;;;;;5067881;28;20052;-81
2021/05/29 15:29:57;;;;;;;0.88;0.82;;;21.10;63.70;;;;;;5064596;28;20050;-83
2021/05/29 15:32:26;;;;;;;0.47;0.47;;;21.10;63.40;;;;;;5066926;28;20097;-83
2021/05/29 15:34:55;;;;;;;0.38;0.38;;;21.00;63.50;;;;;;5056102;28;20123;-83
2021/05/29 15:37:22;;;;;;;0.63;0.55;;;21.00;63.50;;;;;;5057619;28;20061;-79
2021/05/29 15:40:00;;;;;;;0.40;0.40;;;20.90;63.40;;;;;;5053975;28;20088;-80
2021/05/29 15:42:26;;;;;;;0.50;0.50;;;20.80;63.30;;;;;;5028492;28;20040;-77
2021/05/29 15:44:52;;;;;;;0.88;0.52;;;20.70;63.40;;;;;;5062388;28;20040;-76
2021/05/29 15:47:18;;;;;;;0.95;0.68;;;20.80;63.50;;;;;;5059390;28;20541;-75
2021/05/29 15:49:43;;;;;;;0.50;0.50;;;20.80;63.40;;;;;;5074756;28;20040;-75
2021/05/29 15:52:10;;;;;;;0.60;0.60;;;20.90;63.20;;;;;;5078317;28;20056;-75
2021/05/29 15:54:35;;;;;;;0.80;0.55;;;20.90;63.10;;;;;;5074816;28;20036;-75
2021/05/29 15:57:01;;;;;;;0.55;0.55;;;20.90;62.90;;;;;;5057257;28;20123;-75
2021/05/29 15:59:27;;;;;;;0.70;0.70;;;20.90;62.80;;;;;;5030001;28;20040;-75
2021/05/29 16:01:53;;;;;;;0.57;0.57;;;20.90;62.80;;;;;;5060076;28;20486;-75
2021/05/29 16:04:19;;;;;;;0.68;0.68;;;20.90;62.70;;;;;;5075040;28;20044;-75
2021/05/29 16:06:45;;;;;;;0.65;0.65;;;20.90;62.50;;;;;;5101988;28;20038;-75
2021/05/29 16:09:11;;;;;;;0.80;0.80;;;21.10;62.60;;;;;;5122361;28;20043;-76
2021/05/29 16:11:37;;;;;;;1.10;0.80;;;21.00;62.40;;;;;;5069347;28;20093;-74
2021/05/29 16:14:03;;;;;;;0.55;0.55;;;21.00;62.20;;;;;;5123135;28;20039;-75
2021/05/29 16:16:28;;;;;;;0.77;0.77;;;21.00;62.30;;;;;;5128610;28;20142;-77
2021/05/29 16:18:55;;;;;;;0.90;0.70;;;21.00;62.20;;;;;;5099382;28;20051;-77
2021/05/29 16:21:21;;;;;;;0.50;0.50;;;20.90;62.20;;;;;;5133038;28;20133;-76
2021/05/29 16:23:46;;;;;;;0.50;0.50;;;21.00;62.20;;;;;;5136948;28;20067;-77
2021/05/29 16:26:12;;;;;;;0.70;0.68;;;21.00;62.00;;;;;;5116497;28;20039;-75
2021/05/29 16:28:39;;;;;;;0.93;0.60;;;21.00;62.00;;;;;;5101205;28;20039;-76
2021/05/29 16:31:07;;;;;;;0.50;0.50;;;20.90;61.90;;;;;;5119884;28;20024;-76
2021/05/29 16:33:35;;;;;;;0.60;0.50;;;20.90;61.80;;;;;;5136968;28;20050;-75
2021/05/29 16:36:06;;;;;;;0.60;0.60;;;20.90;61.80;;;;;;5101232;28;20063;-76
2021/05/29 16:38:34;;;;;;;0.57;0.55;;;20.80;61.80;;;;;;5101635;28;20046;-76
2021/05/29 16:41:00;;;;;;;0.63;0.63;;;20.80;61.90;;;;;;5134307;28;20100;-76
2021/05/29 16:43:26;;;;;;;0.93;0.80;;;20.70;61.80;;;;;;5134253;28;20024;-75
2021/05/29 16:45:52;;;;;;;0.77;0.68;;;20.60;61.80;;;;;;5117112;28;20050;-75
2021/05/29 16:48:18;;;;;;;1.10;0.80;;;20.70;61.80;;;;;;5135823;28;20038;-75
2021/05/29 16:51:03;;;;;;;0.70;0.70;;;20.70;61.80;;;;;;5119846;28;20028;-76
2021/05/29 16:53:32;;;;;;;0.90;0.73;;;20.70;61.70;;;;;;5135955;28;20083;-76
2021/05/29 16:56:00;;;;;;;0.47;0.47;;;20.70;61.60;;;;;;5110811;28;20016;-79
2021/05/29 16:58:27;;;;;;;0.60;0.60;;;20.60;61.50;;;;;;5095524;28;20029;-79
2021/05/29 17:00:54;;;;;;;0.82;0.80;;;20.50;62.40;;;;;;5116827;28;20054;-78
2021/05/29 17:03:22;;;;;;;0.60;0.60;;;20.30;61.90;;;;;;5116062;28;20477;-78
2021/05/29 17:05:50;;;;;;;0.95;0.90;;;20.30;62.00;;;;;;5135036;28;20040;-79
2021/05/29 17:08:15;;;;;;;0.98;0.80;;;20.30;62.10;;;;;;5120663;28;20044;-79
2021/05/29 17:10:41;;;;;;;1.02;0.70;;;20.30;62.00;;;;;;5068065;28;20054;-79
2021/05/29 17:13:07;;;;;;;0.60;0.60;;;20.30;61.80;;;;;;5074441;28;20075;-77
2021/05/29 17:15:33;;;;;;;0.50;0.50;;;20.50;61.60;;;;;;5117842;28;20099;-80
2021/05/29 17:17:58;;;;;;;0.90;0.80;;;20.50;61.50;;;;;;5121719;28;20501;-79
2021/05/29 17:20:24;;;;;;;0.70;0.70;;;20.50;61.30;;;;;;5107547;28;20040;-79
2021/05/29 17:22:50;;;;;;;0.65;0.60;;;20.50;61.30;;;;;;5103111;28;20047;-77
2021/05/29 17:25:16;;;;;;;0.57;0.57;;;20.50;61.30;;;;;;5088244;28;20055;-79
2021/05/29 17:27:41;;;;;;;0.80;0.55;;;20.40;61.30;;;;;;5088889;28;20039;-79
2021/05/29 17:30:08;;;;;;;0.75;0.55;;;20.50;61.50;;;;;;5117070;28;20515;-79
2021/05/29 17:32:34;;;;;;;0.45;0.45;;;20.50;61.30;;;;;;5097498;28;20055;-77
2021/05/29 17:34:59;;;;;;;0.50;0.50;;;20.50;61.30;;;;;;5066528;28;20036;-78
2021/05/29 17:37:25;;;;;;;0.60;0.60;;;20.40;61.30;;;;;;5101153;28;20047;-79
2021/05/29 17:39:51;;;;;;;1.48;0.73;;;20.40;61.30;;;;;;5118065;28;20032;-79
2021/05/29 17:42:16;;;;;;;0.60;0.60;;;20.50;61.30;;;;;;5105573;28;20036;-78
2021/05/29 17:44:42;;;;;;;0.70;0.70;;;20.30;61.20;;;;;;5087385;28;20480;-78
2021/05/29 17:47:08;;;;;;;0.88;0.70;;;20.20;61.40;;;;;;5087466;28;20071;-78
2021/05/29 17:49:33;;;;;;;0.50;0.50;;;20.00;61.60;;;;;;5116466;28;20088;-79
2021/05/29 17:51:59;;;;;;;0.40;0.40;;;19.90;61.90;;;;;;5078240;28;20036;-78
2021/05/29 17:54:25;;;;;;;0.45;0.45;;;19.90;62.10;;;;;;5095302;28;20059;-78
2021/05/29 17:56:51;;;;;;;0.40;0.40;;;19.80;62.00;;;;;;5094863;28;20068;-79
2021/05/29 17:59:23;;;;;;;0.60;0.60;;;20.00;61.90;;;;;;5093277;28;20044;-79
2021/05/29 18:01:49;;;;;;;0.55;0.50;;;20.00;61.80;;;;;;5078868;28;20085;-79
2021/05/29 18:04:16;;;;;;;0.30;0.30;;;20.10;61.80;;;;;;5077988;28;20080;-79
2021/05/29 18:06:42;;;;;;;0.55;0.52;;;20.20;61.80;;;;;;5095130;28;20043;-79
2021/05/29 18:09:08;;;;;;;0.73;0.60;;;20.50;62.60;;;;;;5077971;28;20405;-80
2021/05/29 18:11:34;;;;;;;0.50;0.50;;;21.00;62.10;;;;;;5094950;28;20046;-79
2021/05/29 18:14:00;;;;;;;0.35;0.35;;;21.40;60.40;;;;;;5078041;28;20050;-79
2021/05/29 18:16:26;;;;;;;0.50;0.50;;;21.60;59.50;;;;;;5112985;28;20039;-79
2021/05/29 18:18:52;;;;;;;0.73;0.65;;;21.60;59.10;;;;;;5076895;28;20059;-80
2021/05/29 18:21:18;;;;;;;0.50;0.50;;;21.80;59.10;;;;;;5094602;28;20063;-79
2021/05/29 18:23:44;;;;;;;0.38;0.38;;;21.90;58.60;;;;;;5094268;28;20051;-78
2021/05/29 18:26:10;;;;;;;0.45;0.45;;;21.60;58.50;;;;;;5060882;28;20439;-78
2021/05/29 18:28:36;;;;;;;0.50;0.50;;;21.30;59.10;;;;;;5076475;28;20413;-78
2021/05/29 18:31:05;;;;;;;0.43;0.43;;;21.00;59.70;;;;;;5112431;28;20032;-78
2021/05/29 18:33:31;;;;;;;0.70;0.70;;;20.70;60.30;;;;;;5094083;28;20372;-77
2021/05/29 18:36:12;;;;;;;0.55;0.55;;;20.40;61.50;;;;;;5094125;28;20067;-78
2021/05/29 18:41:19;;;;;;;0.47;0.47;;;20.00;61.80;;;;;;5080158;28;20047;-77
2021/05/29 18:43:47;;;;;;;1.35;1.20;;;19.70;62.20;;;;;;5094239;28;20385;-77
2021/05/29 18:46:12;;;;;;;1.20;1.10;;;19.70;62.50;;;;;;5093361;28;20044;-77
2021/05/29 18:48:38;;;;;;;1.80;1.10;;;19.50;63.10;;;;;;5077636;28;20043;-78
2021/05/29 18:51:04;;;;;;;1.60;1.40;;;19.40;62.70;;;;;;5112267;28;20035;-77
2021/05/29 18:53:31;;;;;;;2.95;1.88;;;19.40;62.80;;;;;;5093788;28;20043;-77
2021/05/29 18:55:57;;;;;;;3.28;2.10;;;19.40;62.70;;;;;;5112443;28;20039;-77
2021/05/29 18:58:31;;;;;;;2.53;1.80;;;19.40;62.20;;;;;;5060654;28;20130;-78
2021/05/29 19:03:41;;;;;;;2.63;1.90;;;19.30;62.30;;;;;;5095175;28;20047;-80
2021/05/29 19:11:31;;;;;;;3.30;2.15;;;18.70;63.40;;;;;;5099180;28;20095;-78
2021/05/29 19:13:58;;;;;;;2.58;1.67;;;18.60;63.70;;;;;;5079307;28;20124;-79
2021/05/29 19:16:25;;;;;;;2.55;1.70;;;18.40;64.00;;;;;;5097639;28;20036;-79
2021/05/29 19:18:52;;;;;;;2.58;1.63;;;18.30;64.20;;;;;;5097997;28;20043;-79
2021/05/29 19:21:18;;;;;;;3.22;1.50;;;18.20;64.40;;;;;;5063187;28;20559;-79
2021/05/29 19:23:54;;;;;;;1.52;1.25;;;18.00;64.50;;;;;;5115786;28;20094;-79
2021/05/29 19:26:35;;;;;;;2.25;1.30;;;18.00;64.80;;;;;;5081726;28;20036;-79
2021/05/29 19:29:01;;;;;;;1.63;1.20;;;17.90;64.90;;;;;;5082178;28;20416;-79
2021/05/29 19:39:33;;;;;;;2.57;0.87;;;17.60;65.50;;;;;;5115594;28;20039;-78
2021/05/29 19:42:00;;;;;;;1.40;0.95;;;17.40;65.60;;;;;;5115403;28;20277;-78
2021/05/29 19:44:48;;;;;;;1.33;0.93;;;17.40;65.70;;;;;;5097447;28;20397;-79
2021/05/29 19:47:35;;;;;;;1.65;0.88;;;17.30;65.80;;;;;;5085639;28;20564;-79
2021/05/29 20:27:27;;;;;;;0.80;0.55;;;16.30;67.20;;;;;;5114787;28;20110;-78
2021/05/29 20:29:52;;;;;;;0.60;0.60;;;16.10;67.30;;;;;;5078781;28;20036;-79
2021/05/29 20:32:21;;;;;;;1.02;0.70;;;16.10;67.40;;;;;;5096774;28;20118;-79
2021/05/29 20:37:31;;;;;;;0.60;0.50;;;15.90;67.80;;;;;;5114458;28;20048;-78
2021/05/29 20:39:58;;;;;;;1.17;0.70;;;15.80;68.00;;;;;;5114980;28;20047;-78
2021/05/29 20:42:25;;;;;;;0.82;0.50;;;15.70;68.10;;;;;;5096127;28;20039;-79
2021/05/29 20:44:51;;;;;;;0.80;0.70;;;15.80;68.40;;;;;;5079151;28;20039;-79
2021/05/29 20:47:17;;;;;;;0.82;0.55;;;15.60;68.40;;;;;;5079267;28;20036;-80
2021/05/29 20:49:43;;;;;;;0.73;0.60;;;15.50;68.50;;;;;;5062099;28;20028;-77
2021/05/29 20:52:10;;;;;;;1.25;0.82;;;15.50;68.60;;;;;;5094973;28;20040;-78
2021/05/29 20:54:35;;;;;;;0.60;0.60;;;15.40;68.70;;;;;;5096035;28;20044;-78
2021/05/29 20:57:03;;;;;;;0.50;0.50;;;15.40;68.90;;;;;;5094190;28;20047;-79
2021/05/29 20:59:30;;;;;;;0.95;0.75;;;15.30;69.00;;;;;;5080837;28;20095;-78
2021/05/29 21:01:56;;;;;;;1.35;0.90;;;15.20;69.20;;;;;;5079626;28;20434;-80
2021/05/29 21:04:22;;;;;;;0.73;0.63;;;15.20;69.30;;;;;;5079151;28;20121;-79
2021/05/29 21:06:47;;;;;;;0.63;0.63;;;15.10;69.40;;;;;;5077724;28;20079;-79
2021/05/29 21:09:13;;;;;;;0.63;0.63;;;15.10;69.60;;;;;;5095604;28;20503;-78
2021/05/29 21:11:39;;;;;;;0.75;0.60;;;15.00;69.70;;;;;;5096919;28;20534;-79
2021/05/29 21:14:07;;;;;;;1.00;0.90;;;14.90;69.80;;;;;;5113655;28;20046;-79
2021/05/29 21:16:40;;;;;;;1.05;0.77;;;14.90;70.00;;;;;;5114342;28;20100;-79
2021/05/29 21:21:50;;;;;;;0.77;0.60;;;14.80;70.20;;;;;;5098227;28;20131;-79
2021/05/29 21:24:16;;;;;;;0.70;0.65;;;14.70;70.30;;;;;;5079091;28;20035;-79
2021/05/29 21:26:41;;;;;;;0.65;0.63;;;14.60;70.30;;;;;;5076791;28;20097;-79
2021/05/29 21:29:09;;;;;;;1.33;0.90;;;14.50;70.50;;;;;;5095357;28;20400;-80
2021/05/29 21:31:35;;;;;;;0.70;0.68;;;14.50;70.60;;;;;;5062457;28;20035;-80
2021/05/29 21:34:03;;;;;;;0.88;0.70;;;14.40;70.70;;;;;;5062051;28;20393;-79
2021/05/29 21:36:31;;;;;;;0.70;0.70;;;14.40;70.80;;;;;;5113745;28;20035;-79
2021/05/29 21:38:57;;;;;;;1.08;0.90;;;14.40;70.90;;;;;;5113477;28;20175;-79
2021/05/29 21:41:24;;;;;;;0.90;0.65;;;14.30;71.00;;;;;;5094210;28;20047;-80
2021/05/29 21:43:54;;;;;;;1.05;0.70;;;14.30;71.10;;;;;;5113605;28;20061;-79
2021/05/29 21:51:44;;;;;;;0.65;0.60;;;14.10;71.40;;;;;;5113368;28;20043;-79
2021/05/29 21:54:10;;;;;;;0.70;0.70;;;14.00;71.60;;;;;;5077132;28;20044;-79
2021/05/29 21:56:36;;;;;;;1.17;0.85;;;13.90;71.70;;;;;;5095318;28;20063;-79
2021/05/29 21:59:03;;;;;;;0.82;0.68;;;13.90;71.90;;;;;;5078281;28;20039;-79
2021/05/29 22:01:31;;;;;;;0.77;0.73;;;13.80;71.90;;;;;;5095754;28;20126;-79
2021/05/29 22:03:59;;;;;;;0.90;0.80;;;13.80;72.10;;;;;;5078060;28;20047;-79
2021/05/29 22:06:25;;;;;;;0.70;0.70;;;13.70;72.20;;;;;;5095081;28;20073;-79
2021/05/29 22:08:55;;;;;;;0.55;0.55;;;13.70;72.20;;;;;;5078015;28;20053;-80
2021/05/29 22:19:38;;;;;;;0.85;0.65;;;13.50;72.50;;;;;;5082714;28;20031;-79
2021/05/29 22:22:19;;;;;;;0.80;0.70;;;13.40;72.60;;;;;;5078488;28;20603;-80
2021/05/29 22:30:09;;;;;;;0.50;0.50;;;13.30;72.90;;;;;;5082058;28;20558;-78
2021/05/29 22:32:35;;;;;;;1.00;0.70;;;13.20;72.90;;;;;;5094514;28;20039;-78
2021/05/29 22:35:03;;;;;;;1.38;0.73;;;13.10;73.00;;;;;;5112893;28;20043;-79
2021/05/29 22:37:31;;;;;;;0.82;0.80;;;13.00;73.10;;;;;;5059728;28;20042;-79
2021/05/29 22:39:57;;;;;;;0.90;0.73;;;13.00;73.20;;;;;;5075636;28;20123;-79
2021/05/29 22:42:23;;;;;;;0.82;0.77;;;13.00;73.30;;;;;;5094886;28;20043;-80
2021/05/29 22:44:49;;;;;;;1.20;0.80;;;12.90;73.30;;;;;;5060089;28;20390;-79
2021/05/29 22:47:17;;;;;;;0.85;0.70;;;12.90;73.40;;;;;;5113150;28;20038;-80
2021/05/29 22:49:43;;;;;;;0.50;0.50;;;12.90;73.50;;;;;;5094653;28;20100;-80
2021/05/29 22:52:10;;;;;;;0.52;0.50;;;12.80;73.60;;;;;;5094820;28;20032;-80
2021/05/29 22:54:36;;;;;;;1.10;0.73;;;12.80;73.60;;;;;;5060196;28;20040;-80
2021/05/29 22:57:03;;;;;;;0.47;0.47;;;12.70;73.70;;;;;;5060902;28;20042;-79
2021/05/29 22:59:29;;;;;;;0.63;0.63;;;12.70;73.90;;;;;;5094365;28;20040;-80
2021/05/29 23:01:56;;;;;;;0.70;0.70;;;12.60;73.90;;;;;;5112486;28;20542;-80
2021/05/29 23:04:21;;;;;;;1.52;0.90;;;12.60;74.00;;;;;;5076383;28;20076;-79
2021/05/29 23:06:47;;;;;;;0.85;0.70;;;12.50;74.10;;;;;;5112447;28;20044;-79
2021/05/29 23:09:13;;;;;;;1.02;0.70;;;12.50;74.20;;;;;;5094091;28;20075;-80
2021/05/29 23:11:39;;;;;;;0.90;0.77;;;12.40;74.20;;;;;;5093776;28;20042;-79
2021/05/29 23:14:06;;;;;;;0.98;0.88;;;12.40;74.30;;;;;;5092359;28;20052;-79
2021/05/29 23:16:31;;;;;;;0.50;0.50;;;12.30;74.30;;;;;;5112552;28;20048;-80
2021/05/29 23:18:57;;;;;;;1.00;0.60;;;12.30;74.50;;;;;;5112539;28;20092;-80
2021/05/29 23:21:23;;;;;;;0.85;0.70;;;12.20;74.50;;;;;;5112026;28;20039;-80
2021/05/29 23:23:49;;;;;;;1.05;0.80;;;12.40;74.80;;;;;;5076919;28;20585;-79
2021/05/29 23:26:14;;;;;;;0.82;0.82;;;12.10;74.70;;;;;;5111880;28;20177;-80
2021/05/29 23:28:40;;;;;;;0.80;0.80;;;12.10;74.80;;;;;;5112067;28;20118;-80
2021/05/29 23:31:06;;;;;;;1.33;0.88;;;12.00;74.80;;;;;;5075283;28;20032;-79
2021/05/29 23:33:32;;;;;;;0.73;0.60;;;12.00;74.90;;;;;;5111858;28;20642;-79
2021/05/29 23:35:57;;;;;;;0.70;0.60;;;12.00;75.00;;;;;;5076183;28;20047;-78
2021/05/29 23:38:23;;;;;;;1.00;0.80;;;12.00;75.00;;;;;;5093591;28;20039;-78
2021/05/29 23:40:49;;;;;;;1.08;0.98;;;11.90;75.10;;;;;;5111851;28;20040;-78
2021/05/29 23:43:15;;;;;;;1.17;0.70;;;11.80;75.20;;;;;;5094070;28;20036;-79
2021/05/29 23:45:41;;;;;;;1.45;1.00;;;11.80;75.30;;;;;;5075757;28;20044;-80
2021/05/29 23:48:07;;;;;;;0.88;0.70;;;11.70;75.30;;;;;;5093913;28;20039;-79
2021/05/29 23:50:33;;;;;;;1.15;0.90;;;11.70;75.30;;;;;;5094527;28;20089;-79
2021/05/29 23:53:01;;;;;;;0.95;0.88;;;11.70;75.40;;;;;;5080001;28;20062;-79
2021/05/29 23:55:28;;;;;;;0.90;0.80;;;11.60;75.50;;;;;;5080193;28;20047;-79
2021/05/29 23:57:55;;;;;;;1.15;0.98;;;11.60;75.60;;;;;;5115078;28;20039;-80
